createdAt,value
2023-03-07T00:03:08.269Z,100066.02
2023-03-07T00:07:11.074Z,100058.88
2023-03-07T00:11:10.994Z,100057.44
2023-03-07T00:15:14.314Z,100051.10
2023-03-07T00:19:13.995Z,100040.41
2023-03-07T00:23:17.829Z,100035.58
2023-03-07T00:27:17.187Z,100033.45
2023-03-07T00:31:23.389Z,100028.19
2023-03-07T00:35:23.092Z,100023.41
2023-03-07T00:39:26.236Z,100019.28
2023-03-07T00:43:27.211Z,100017.20
2023-03-07T00:47:30.116Z,100011.81
2023-03-07T00:51:30.220Z,100010.04
2023-03-07T00:55:33.070Z,100006.08
2023-03-07T00:59:32.136Z,100001.77
2023-03-07T01:03:36.488Z,100003.74
2023-03-07T01:07:30.276Z,99994.15
2023-03-07T01:11:29.493Z,99991.02
2023-03-07T01:15:31.304Z,99987.87
2023-03-07T01:19:28.454Z,99983.59
2023-03-07T01:23:28.964Z,99979.57
2023-03-07T01:27:26.511Z,99978.75
2023-03-07T01:31:26.942Z,99976.19
2023-03-07T01:35:25.058Z,99974.99
2023-03-07T01:39:27.071Z,99972.24
2023-03-07T01:43:20.045Z,99970.30
2023-03-07T01:47:07.005Z,99968.79
2023-03-07T01:51:22.521Z,99963.30
2023-03-07T01:55:24.211Z,99962.79
2023-03-07T01:59:24.656Z,99961.55
2023-03-07T02:03:29.157Z,99961.34
2023-03-07T02:07:26.750Z,99958.06
2023-03-07T02:11:27.489Z,99957.27
2023-03-07T02:15:24.483Z,99954.34
2023-03-07T02:19:26.512Z,99947.79
2023-03-07T02:23:25.202Z,99943.09
2023-03-07T02:27:11.395Z,99937.65
2023-03-07T02:30:58.469Z,99934.80
2023-03-07T02:34:46.922Z,99932.89
2023-03-07T02:38:37.669Z,99928.82
2023-03-07T02:42:36.408Z,99923.52
2023-03-07T02:46:34.854Z,99914.91
2023-03-07T02:50:35.716Z,99912.71
2023-03-07T02:54:32.299Z,99909.36
2023-03-07T02:58:36.918Z,99907.45
2023-03-07T03:02:33.825Z,99904.42
2023-03-07T03:06:34.239Z,99902.31
2023-03-07T03:10:31.397Z,99898.41
2023-03-07T03:14:33.016Z,99895.13
2023-03-07T03:18:25.257Z,99892.19
2023-03-07T03:22:10.953Z,99883.34
2023-03-07T03:25:59.147Z,99880.33
2023-03-07T03:29:46.808Z,99876.63
2023-03-07T03:33:35.914Z,99878.94
2023-03-07T03:37:21.991Z,99874.52
2023-03-07T03:41:19.574Z,99872.27
2023-03-07T03:44:53.844Z,99866.66
2023-03-07T03:48:48.262Z,99863.01
2023-03-07T03:52:41.488Z,99855.41
2023-03-07T03:56:39.031Z,99850.63
2023-03-07T04:00:39.759Z,99850.35
2023-03-07T04:04:36.610Z,99851.15
2023-03-07T04:08:35.493Z,99842.79
2023-03-07T04:12:38.865Z,99847.52
2023-03-07T04:16:35.701Z,99848.48
2023-03-07T04:20:36.303Z,99847.11
2023-03-07T04:24:33.625Z,99846.33
2023-03-07T04:28:20.416Z,99844.44
2023-03-07T04:32:07.688Z,99845.85
2023-03-07T04:35:54.119Z,99845.84
2023-03-07T04:39:40.990Z,99840.59
2023-03-07T04:43:30.315Z,99844.61
2023-03-07T04:47:16.519Z,99843.98
2023-03-07T04:51:10.737Z,99839.90
2023-03-07T04:55:06.634Z,99841.80
2023-03-07T04:59:07.777Z,99842.75
2023-03-07T05:03:10.574Z,99842.61
2023-03-07T05:07:19.666Z,99845.77
2023-03-07T05:11:16.962Z,99847.23
2023-03-07T05:15:17.617Z,99843.31
2023-03-07T05:19:15.133Z,99840.77
2023-03-07T05:23:35.858Z,99843.59
2023-03-07T05:27:32.840Z,99845.17
2023-03-07T05:31:35.652Z,99847.33
2023-03-07T05:35:32.490Z,99846.28
2023-03-07T05:39:34.418Z,99848.80
2023-03-07T05:43:32.047Z,99847.55
2023-03-07T05:47:34.013Z,99846.61
2023-03-07T05:51:30.958Z,99843.52
2023-03-07T05:55:31.632Z,99845.62
2023-03-07T05:59:30.197Z,99850.45
2023-03-07T06:03:30.727Z,99848.23
2023-03-07T06:07:28.292Z,99849.13
2023-03-07T06:11:30.119Z,99847.64
2023-03-07T06:15:29.238Z,99848.69
2023-03-07T06:19:36.034Z,99845.54
2023-03-07T06:23:33.852Z,99841.87
2023-03-07T06:27:34.901Z,99840.14
2023-03-07T06:31:31.983Z,99841.84
2023-03-07T06:35:32.863Z,99832.06
2023-03-07T06:39:31.378Z,99831.77
2023-03-07T06:43:31.975Z,99822.93
2023-03-07T06:47:32.415Z,99819.74
2023-03-07T06:51:29.828Z,99817.05
2023-03-07T06:55:35.174Z,99812.11
2023-03-07T06:59:33.019Z,99811.63
2023-03-07T07:03:31.244Z,99814.99
2023-03-07T07:07:33.932Z,99813.05
2023-03-07T07:11:31.010Z,99814.48
2023-03-07T07:15:33.661Z,99808.52
2023-03-07T07:19:30.839Z,99810.66
2023-03-07T07:23:31.793Z,99803.11
2023-03-07T07:27:29.044Z,99797.96
2023-03-07T07:31:29.906Z,99796.06
2023-03-07T07:35:27.261Z,99794.15
2023-03-07T07:39:31.098Z,99796.90
2023-03-07T07:43:28.106Z,99790.64
2023-03-07T07:47:38.043Z,99791.70
2023-03-07T07:51:34.670Z,99794.71
2023-03-07T07:55:35.501Z,99794.85
2023-03-07T07:59:35.783Z,99789.80
2023-03-07T08:03:36.246Z,99788.88
2023-03-07T08:07:32.911Z,99788.98
2023-03-07T08:11:33.252Z,99784.30
2023-03-07T08:15:30.852Z,99790.98
2023-03-07T08:19:31.429Z,99788.11
2023-03-07T08:23:28.053Z,99793.07
2023-03-07T08:27:26.381Z,99792.83
2023-03-07T08:31:27.875Z,99788.77
2023-03-07T08:35:25.871Z,99789.52
2023-03-07T08:39:23.956Z,99792.41
2023-03-07T08:43:23.586Z,99789.58
2023-03-07T08:47:20.279Z,99785.95
2023-03-07T08:51:20.969Z,99783.98
2023-03-07T08:55:18.023Z,99776.36
2023-03-07T09:00:13.295Z,99765.95
2023-03-07T09:04:10.925Z,99764.19
2023-03-07T09:08:11.438Z,99751.52
2023-03-07T09:12:09.427Z,99747.61
2023-03-07T09:16:09.466Z,99748.45
2023-03-07T09:20:05.451Z,99747.45
2023-03-07T09:24:04.843Z,99741.51
2023-03-07T09:28:05.736Z,99741.52
2023-03-07T09:32:02.888Z,99741.51
2023-03-07T09:36:06.502Z,99738.20
2023-03-07T09:40:02.844Z,99741.65
2023-03-07T09:44:03.095Z,99737.85
2023-03-07T09:48:24.654Z,99733.79
2023-03-07T09:52:25.142Z,99737.55
2023-03-07T09:56:23.501Z,99734.23
2023-03-07T10:00:23.832Z,99725.21
2023-03-07T10:04:20.781Z,99723.65
2023-03-07T10:08:20.850Z,99715.55
2023-03-07T10:12:20.950Z,99708.48
2023-03-07T10:16:19.132Z,99708.30
2023-03-07T10:20:19.636Z,99706.15
2023-03-07T10:24:17.079Z,99707.23
2023-03-07T10:28:17.675Z,99711.09
2023-03-07T10:32:14.770Z,99706.70
2023-03-07T10:36:16.009Z,99702.33
2023-03-07T10:40:12.535Z,99705.29
2023-03-07T10:44:13.459Z,99704.08
2023-03-07T10:48:11.080Z,99707.58
2023-03-07T10:52:12.562Z,99706.99
2023-03-07T10:56:08.504Z,99709.08
2023-03-07T11:00:09.181Z,99713.37
2023-03-07T11:04:05.733Z,99715.44
2023-03-07T11:08:10.095Z,99713.27
2023-03-07T11:11:49.395Z,99707.77
2023-03-07T11:15:47.019Z,99706.52
2023-03-07T11:19:52.128Z,99711.56
2023-03-07T11:23:49.620Z,99712.33
2023-03-07T11:27:50.162Z,99708.10
2023-03-07T11:31:46.778Z,99704.52
2023-03-07T11:35:48.172Z,99705.34
2023-03-07T11:39:48.525Z,99699.90
2023-03-07T11:43:46.622Z,99695.84
2023-03-07T11:47:46.927Z,99693.32
2023-03-07T11:51:40.758Z,99696.31
2023-03-07T11:55:41.365Z,99696.89
2023-03-07T11:59:33.541Z,99696.68
2023-03-07T12:03:33.848Z,99696.39
2023-03-07T12:07:32.339Z,99694.60
2023-03-07T12:11:32.988Z,99698.79
2023-03-07T12:15:29.748Z,99695.36
2023-03-07T12:19:32.631Z,99688.32
2023-03-07T12:23:29.760Z,99690.48
2023-03-07T12:27:30.202Z,99688.35
2023-03-07T12:31:27.976Z,99698.09
2023-03-07T12:35:28.219Z,99692.42
2023-03-07T12:39:23.014Z,99700.77
2023-03-07T12:43:23.487Z,99693.35
2023-03-07T12:47:19.802Z,99692.64
2023-03-07T12:51:19.851Z,99688.89
2023-03-07T12:55:16.580Z,99689.05
2023-03-07T12:59:16.819Z,99688.00
2023-03-07T13:03:12.955Z,99688.65
2023-03-07T13:07:13.585Z,99687.33
2023-03-07T13:11:10.963Z,99686.79
2023-03-07T13:15:11.205Z,99692.89
2023-03-07T13:19:06.502Z,99696.10
2023-03-07T13:22:37.441Z,99692.87
2023-03-07T13:26:23.505Z,99692.25
2023-03-07T13:30:10.024Z,99689.47
2023-03-07T13:33:56.392Z,99700.27
2023-03-07T13:37:42.383Z,99694.23
2023-03-07T13:41:28.425Z,99691.70
2023-03-07T13:45:14.864Z,99696.13
2023-03-07T13:49:01.008Z,99697.73
2023-03-07T13:52:54.148Z,99699.69
2023-03-07T13:56:47.062Z,99699.70
2023-03-07T14:00:43.916Z,99702.23
2023-03-07T14:04:44.735Z,99704.69
2023-03-07T14:08:40.738Z,99702.16
2023-03-07T14:12:40.951Z,99702.21
2023-03-07T14:16:38.203Z,99703.90
2023-03-07T14:20:38.785Z,99705.88
2023-03-07T14:24:34.774Z,99710.80
2023-03-07T14:28:35.923Z,99708.88
2023-03-07T14:32:22.113Z,99711.13
2023-03-07T14:36:08.611Z,99716.59
2023-03-07T14:39:55.106Z,99717.92
2023-03-07T14:43:41.211Z,99721.03
2023-03-07T14:47:27.605Z,99723.71
2023-03-07T14:51:13.759Z,99726.70
2023-03-07T14:55:06.049Z,99723.41
2023-03-07T14:59:05.198Z,99725.50
2023-03-07T15:03:05.530Z,99727.90
2023-03-07T15:07:01.947Z,99729.56
2023-03-07T15:11:01.816Z,99734.39
2023-03-07T15:14:58.154Z,99738.58
2023-03-07T15:18:58.481Z,99743.61
2023-03-07T15:22:44.408Z,99747.92
2023-03-07T15:26:30.228Z,99749.77
2023-03-07T15:30:16.549Z,99746.27
2023-03-07T15:34:02.458Z,99745.15
2023-03-07T15:37:48.492Z,99751.83
2023-03-07T15:41:40.529Z,99754.18
2023-03-07T15:45:34.714Z,99750.27
2023-03-07T15:49:37.649Z,99753.54
2023-03-07T15:53:34.461Z,99757.77
2023-03-07T15:57:34.555Z,99761.71
2023-03-07T16:01:31.215Z,99765.14
2023-03-07T16:05:31.661Z,99770.95
2023-03-07T16:09:28.079Z,99775.02
2023-03-07T16:13:28.009Z,99774.33
2023-03-07T16:17:25.053Z,99783.22
2023-03-07T16:21:11.444Z,99787.31
2023-03-07T16:24:57.464Z,99787.77
2023-03-07T16:28:44.205Z,99796.55
2023-03-07T16:32:31.183Z,99804.53
2023-03-07T16:36:17.392Z,99808.35
2023-03-07T16:40:03.516Z,99810.86
2023-03-07T16:43:59.256Z,99811.21
2023-03-07T16:48:00.366Z,99818.52
2023-03-07T16:52:05.653Z,99819.48
2023-03-07T16:56:07.118Z,99819.33
2023-03-07T17:00:03.313Z,99819.05
2023-03-07T17:04:00.221Z,99818.29
2023-03-07T17:08:01.461Z,99821.36
2023-03-07T17:11:58.453Z,99820.95
2023-03-07T17:15:58.709Z,99821.52
2023-03-07T17:19:55.610Z,99830.55
2023-03-07T17:23:56.919Z,99833.85
2023-03-07T17:27:54.916Z,99832.19
2023-03-07T17:31:55.272Z,99830.85
2023-03-07T17:35:53.709Z,99829.49
2023-03-07T17:39:54.200Z,99837.99
2023-03-07T17:43:50.216Z,99842.61
2023-03-07T17:47:51.000Z,99847.64
2023-03-07T17:51:48.456Z,99849.65
2023-03-07T17:55:48.602Z,99849.20
2023-03-07T17:59:45.152Z,99849.67
2023-03-07T18:03:45.297Z,99848.94
2023-03-07T18:07:42.522Z,99851.39
2023-03-07T18:11:42.914Z,99857.85
2023-03-07T18:15:40.677Z,99856.92
2023-03-07T18:19:40.876Z,99858.00
2023-03-07T18:23:37.525Z,99856.17
2023-03-07T18:27:34.338Z,99858.96
2023-03-07T18:31:36.143Z,99850.42
2023-03-07T18:35:34.782Z,99852.52
2023-03-07T18:39:33.659Z,99857.53
2023-03-07T18:43:33.542Z,99855.67
2023-03-07T18:47:33.640Z,99859.78
2023-03-07T18:51:34.514Z,99851.61
2023-03-07T18:55:31.852Z,99854.80
2023-03-07T18:59:33.414Z,99859.78
2023-03-07T19:03:30.721Z,99863.81
2023-03-07T19:07:31.080Z,99872.72
2023-03-07T19:11:29.688Z,99873.84
2023-03-07T19:15:26.766Z,99869.94
2023-03-07T19:19:27.375Z,99876.46
2023-03-07T19:23:24.658Z,99877.59
2023-03-07T19:27:27.011Z,99881.11
2023-03-07T19:31:23.581Z,99875.33
2023-03-07T19:35:24.427Z,99878.92
2023-03-07T19:39:21.390Z,99878.55
2023-03-07T19:43:22.279Z,99879.61
2023-03-07T19:47:18.356Z,99876.42
2023-03-07T19:51:14.399Z,99879.51
2023-03-07T19:55:14.700Z,99881.33
2023-03-07T19:59:11.565Z,99878.05
2023-03-07T20:03:11.930Z,99881.23
2023-03-07T20:07:08.959Z,99876.17
2023-03-07T20:11:09.859Z,99882.69
2023-03-07T20:15:07.593Z,99881.60
2023-03-07T20:19:09.174Z,99879.23
2023-03-07T20:23:07.983Z,99872.09
2023-03-07T20:27:08.546Z,99881.75
2023-03-07T20:31:05.707Z,99886.59
2023-03-07T20:35:07.483Z,99891.38
2023-03-07T20:39:04.459Z,99889.90
2023-03-07T20:43:05.270Z,99890.48
2023-03-07T20:47:01.496Z,99891.89
2023-03-07T20:51:01.690Z,99886.04
2023-03-07T20:54:58.928Z,99883.20
2023-03-07T20:58:59.848Z,99887.84
2023-03-07T21:03:06.022Z,99896.01
2023-03-07T21:07:10.707Z,99892.23
2023-03-07T21:11:09.761Z,99898.30
2023-03-07T21:15:13.278Z,99901.25
2023-03-07T21:19:15.706Z,99904.42
2023-03-07T21:23:18.802Z,99900.02
2023-03-07T21:27:19.652Z,99897.22
2023-03-07T21:31:22.736Z,99890.92
2023-03-07T21:35:23.742Z,99885.29
2023-03-07T21:39:26.811Z,99885.13
2023-03-07T21:43:26.736Z,99883.02
2023-03-07T21:47:30.669Z,99881.56
2023-03-07T21:51:31.809Z,99876.14
2023-03-07T21:55:34.922Z,99876.02
2023-03-07T21:59:34.621Z,99877.10
2023-03-07T22:03:37.924Z,99881.52
2023-03-07T22:07:36.907Z,99888.24
2023-03-07T22:11:39.722Z,99878.37
2023-03-07T22:15:40.760Z,99889.00
2023-03-07T22:19:46.309Z,99885.67
2023-03-07T22:23:44.856Z,99887.81
2023-03-07T22:27:48.681Z,99885.07
2023-03-07T22:31:48.858Z,99887.54
2023-03-07T22:35:51.757Z,99887.01
2023-03-07T22:39:53.780Z,99891.41
2023-03-07T22:43:57.422Z,99895.14
2023-03-07T22:48:00.432Z,99894.95
2023-03-07T22:51:59.001Z,99894.75
2023-03-07T22:56:01.885Z,99892.95
2023-03-07T23:00:08.859Z,99895.82
2023-03-07T23:04:12.378Z,99897.02
2023-03-07T23:07:52.611Z,99893.50
2023-03-07T23:11:56.997Z,99891.54
2023-03-07T23:15:57.630Z,99901.09
2023-03-07T23:19:57.947Z,99896.27
2023-03-07T23:23:58.517Z,99894.83
2023-03-07T23:27:57.034Z,99885.38
2023-03-07T23:32:00.219Z,99872.84
2023-03-07T23:35:57.400Z,99875.04
2023-03-07T23:39:57.859Z,99880.91
2023-03-07T23:43:59.113Z,99862.48
2023-03-07T23:47:56.949Z,99862.03
2023-03-07T23:51:58.014Z,99864.84
2023-03-07T23:55:55.921Z,99866.56
2023-03-07T23:59:56.949Z,99855.00
